createdAt,value
2023-05-21T00:00:25.413Z,95584.00
2023-05-21T00:01:26.661Z,95578.00
2023-05-21T00:02:25.563Z,95578.00
2023-05-21T00:03:25.586Z,95580.00
2023-05-21T00:04:26.550Z,95580.00
2023-05-21T00:05:25.676Z,95580.00
2023-05-21T00:06:25.732Z,95580.00
2023-05-21T00:07:26.668Z,95580.00
2023-05-21T00:08:26.764Z,95580.00
2023-05-21T00:09:26.791Z,95584.00
2023-05-21T00:10:25.943Z,95582.00
2023-05-21T00:11:26.977Z,95584.00
2023-05-21T00:12:25.992Z,95586.00
2023-05-21T00:13:25.877Z,95584.00
2023-05-21T00:14:26.032Z,95582.00
2023-05-21T00:15:25.961Z,95584.00
2023-05-21T00:16:27.226Z,95582.00
2023-05-21T00:17:26.137Z,95586.00
2023-05-21T00:18:26.233Z,95582.00
2023-05-21T00:19:27.302Z,95582.00
2023-05-21T00:20:26.163Z,95582.00
2023-05-21T00:21:27.205Z,95584.00
2023-05-21T00:22:27.190Z,95580.00
2023-05-21T00:23:27.214Z,95578.00
2023-05-21T00:24:27.254Z,95578.00
2023-05-21T00:25:26.397Z,95576.00
2023-05-21T00:26:26.329Z,95574.00
2023-05-21T00:27:26.357Z,95574.00
2023-05-21T00:28:27.463Z,95572.00
2023-05-21T00:29:26.418Z,95572.00
2023-05-21T00:30:27.610Z,95572.00
2023-05-21T00:31:26.597Z,95574.00
2023-05-21T00:32:26.614Z,95576.00
2023-05-21T00:33:26.825Z,95572.00
2023-05-21T00:34:27.637Z,95576.00
2023-05-21T00:35:26.652Z,95574.00
2023-05-21T00:36:27.680Z,95576.00
2023-05-21T00:37:27.706Z,95572.00
2023-05-21T00:38:26.738Z,95570.00
2023-05-21T00:39:26.804Z,95570.00
2023-05-21T00:40:27.801Z,95566.00
2023-05-21T00:41:27.970Z,95564.00
2023-05-21T00:42:27.046Z,95564.00
2023-05-21T00:43:28.079Z,95560.00
2023-05-21T00:44:27.021Z,95562.00
2023-05-21T00:45:28.224Z,95560.00
2023-05-21T00:46:28.271Z,95560.00
2023-05-21T00:47:27.372Z,95562.00
2023-05-21T00:48:28.164Z,95562.00
2023-05-21T00:49:27.383Z,95562.00
2023-05-21T00:50:28.155Z,95566.00
2023-05-21T00:51:28.313Z,95568.00
2023-05-21T00:52:27.565Z,95568.00
2023-05-21T00:53:28.270Z,95570.00
2023-05-21T00:54:27.412Z,95570.00
2023-05-21T00:55:27.611Z,95572.00
2023-05-21T00:56:27.396Z,95574.00
2023-05-21T00:57:27.469Z,95572.00
2023-05-21T00:58:28.467Z,95570.00
2023-05-21T00:59:27.514Z,95566.00
2023-05-21T01:00:27.566Z,95566.00
2023-05-21T01:01:27.698Z,95566.00
2023-05-21T01:02:29.002Z,95566.00
2023-05-21T01:03:27.943Z,95564.00
2023-05-21T01:04:28.935Z,95564.00
2023-05-21T01:05:28.815Z,95564.00
2023-05-21T01:06:27.889Z,95562.00
2023-05-21T01:07:28.056Z,95564.00
2023-05-21T01:08:27.910Z,95568.00
2023-05-21T01:09:29.155Z,95568.00
2023-05-21T01:10:28.233Z,95566.00
2023-05-21T01:11:28.269Z,95566.00
2023-05-21T01:12:28.351Z,95566.00
2023-05-21T01:13:28.145Z,95562.00
2023-05-21T01:14:28.406Z,95562.00
2023-05-21T01:15:29.408Z,95562.00
2023-05-21T01:16:28.341Z,95562.00
2023-05-21T01:17:29.310Z,95562.00
2023-05-21T01:18:29.583Z,95562.00
2023-05-21T01:19:29.536Z,95562.00
2023-05-21T01:20:28.607Z,95564.00
2023-05-21T01:21:29.546Z,95562.00
2023-05-21T01:22:29.624Z,95562.00
2023-05-21T01:23:28.586Z,95558.00
2023-05-21T01:24:29.624Z,95554.00
2023-05-21T01:25:28.662Z,95556.00
2023-05-21T01:26:29.811Z,95554.00
2023-05-21T01:27:28.770Z,95554.00
2023-05-21T01:28:30.064Z,95554.00
2023-05-21T01:29:29.920Z,95554.00
2023-05-21T01:30:29.990Z,95552.00
2023-05-21T01:31:29.008Z,95556.00
2023-05-21T01:32:29.291Z,95560.00
2023-05-21T01:33:30.151Z,95558.00
2023-05-21T01:34:30.349Z,95558.00
2023-05-21T01:35:30.133Z,95558.00
2023-05-21T01:36:29.234Z,95556.00
2023-05-21T01:37:29.360Z,95554.00
2023-05-21T01:38:29.433Z,95556.00
2023-05-21T01:39:30.457Z,95554.00
2023-05-21T01:40:30.387Z,95554.00
2023-05-21T01:41:30.405Z,95552.00
2023-05-21T01:42:30.447Z,95550.00
2023-05-21T01:43:29.757Z,95550.00
2023-05-21T01:44:30.699Z,95548.00
2023-05-21T01:45:29.744Z,95550.00
2023-05-21T01:46:30.552Z,95550.00
2023-05-21T01:47:30.783Z,95550.00
2023-05-21T01:48:29.942Z,95554.00
2023-05-21T01:49:30.973Z,95554.00
2023-05-21T01:50:29.976Z,95558.00
2023-05-21T01:51:29.914Z,95560.00
2023-05-21T01:52:30.109Z,95558.00
2023-05-21T01:53:30.039Z,95560.00
2023-05-21T01:54:30.092Z,95558.00
2023-05-21T01:55:30.270Z,95558.00
2023-05-21T01:56:30.186Z,95554.00
2023-05-21T01:57:31.281Z,95556.00
2023-05-21T01:58:30.411Z,95562.00
2023-05-21T01:59:31.516Z,95560.00
2023-05-21T02:00:30.357Z,95560.00
2023-05-21T02:01:31.633Z,95562.00
2023-05-21T02:02:30.740Z,95560.00
2023-05-21T02:03:31.858Z,95560.00
2023-05-21T02:04:30.602Z,95560.00
2023-05-21T02:05:31.947Z,95558.00
2023-05-21T02:06:31.717Z,95558.00
2023-05-21T02:07:30.698Z,95558.00
2023-05-21T02:08:30.740Z,95558.00
2023-05-21T02:09:30.847Z,95560.00
2023-05-21T02:10:31.976Z,95560.00
2023-05-21T02:11:30.965Z,95560.00
2023-05-21T02:12:30.952Z,95560.00
2023-05-21T02:13:32.115Z,95560.00
2023-05-21T02:14:31.208Z,95560.00
2023-05-21T02:15:32.251Z,95556.00
2023-05-21T02:16:31.265Z,95562.00
2023-05-21T02:17:32.337Z,95558.00
2023-05-21T02:18:32.246Z,95560.00
2023-05-21T02:19:31.417Z,95562.00
2023-05-21T02:20:32.344Z,95560.00
2023-05-21T02:21:31.544Z,95560.00
2023-05-21T02:22:32.428Z,95560.00
2023-05-21T02:23:32.585Z,95562.00
2023-05-21T02:24:32.673Z,95562.00
2023-05-21T02:25:31.666Z,95562.00
2023-05-21T02:26:31.656Z,95558.00
2023-05-21T02:27:31.804Z,95558.00
2023-05-21T02:28:31.984Z,95558.00
2023-05-21T02:29:31.836Z,95556.00
2023-05-21T02:30:31.980Z,95554.00
2023-05-21T02:31:32.910Z,95556.00
2023-05-21T02:32:32.070Z,95554.00
2023-05-21T02:33:32.204Z,95554.00
2023-05-21T02:34:33.054Z,95554.00
2023-05-21T02:35:33.328Z,95554.00
2023-05-21T02:36:32.179Z,95548.00
2023-05-21T02:37:33.424Z,95552.00
2023-05-21T02:38:33.318Z,95546.00
2023-05-21T02:39:32.448Z,95545.00
2023-05-21T02:40:32.646Z,95543.00
2023-05-21T02:41:32.430Z,95543.00
2023-05-21T02:42:33.481Z,95539.00
2023-05-21T02:43:33.614Z,95539.00
2023-05-21T02:44:32.741Z,95537.00
2023-05-21T02:45:32.903Z,95537.00
2023-05-21T02:46:32.706Z,95537.00
2023-05-21T02:47:32.767Z,95535.00
2023-05-21T02:48:32.963Z,95533.00
2023-05-21T02:49:32.857Z,95533.00
2023-05-21T02:50:33.911Z,95535.00
2023-05-21T02:51:32.985Z,95529.00
2023-05-21T02:52:34.099Z,95525.00
2023-05-21T02:53:33.257Z,95529.00
2023-05-21T02:54:34.167Z,95531.00
2023-05-21T02:55:34.406Z,95533.00
2023-05-21T02:56:33.206Z,95537.00
2023-05-21T02:57:33.309Z,95539.00
2023-05-21T02:58:34.421Z,95537.00
2023-05-21T02:59:33.381Z,95539.00
2023-05-21T03:00:34.444Z,95541.00
2023-05-21T03:01:33.566Z,95541.00
2023-05-21T03:02:33.684Z,95545.00
2023-05-21T03:03:33.862Z,95543.00
2023-05-21T03:04:33.841Z,95543.00
2023-05-21T03:05:35.084Z,95545.00
2023-05-21T03:06:33.939Z,95541.00
2023-05-21T03:07:34.794Z,95541.00
2023-05-21T03:08:34.891Z,95539.00
2023-05-21T03:09:34.857Z,95539.00
2023-05-21T03:10:34.920Z,95539.00
2023-05-21T03:11:34.180Z,95543.00
2023-05-21T03:12:34.260Z,95545.00
2023-05-21T03:13:34.104Z,95543.00
2023-05-21T03:14:34.122Z,95545.00
2023-05-21T03:15:35.369Z,95545.00
2023-05-21T03:16:35.513Z,95545.00
2023-05-21T03:17:34.362Z,95543.00
2023-05-21T03:18:35.350Z,95545.00
2023-05-21T03:19:35.601Z,95545.00
2023-05-21T03:20:34.459Z,95548.00
2023-05-21T03:21:35.714Z,95545.00
2023-05-21T03:22:34.686Z,95550.00
2023-05-21T03:23:35.592Z,95546.00
2023-05-21T03:24:35.742Z,95545.00
2023-05-21T03:25:34.880Z,95546.00
2023-05-21T03:26:34.770Z,95548.00
2023-05-21T03:27:34.816Z,95546.00
2023-05-21T03:28:34.861Z,95550.00
2023-05-21T03:29:34.982Z,95550.00
2023-05-21T03:30:35.027Z,95550.00
2023-05-21T03:31:36.061Z,95552.00
2023-05-21T03:32:36.126Z,95548.00
2023-05-21T03:33:36.183Z,95550.00
2023-05-21T03:34:35.208Z,95548.00
2023-05-21T03:35:36.584Z,95548.00
2023-05-21T03:36:36.360Z,95548.00
2023-05-21T03:37:36.415Z,95548.00
2023-05-21T03:38:37.143Z,95552.00
2023-05-21T03:39:35.523Z,95552.00
2023-05-21T03:40:35.697Z,95552.00
2023-05-21T03:41:36.670Z,95552.00
2023-05-21T03:42:35.691Z,95554.00
2023-05-21T03:43:37.492Z,95552.00
2023-05-21T03:44:37.039Z,95554.00
2023-05-21T03:45:36.100Z,95554.00
2023-05-21T03:46:36.119Z,95550.00
2023-05-21T03:47:36.127Z,95548.00
2023-05-21T03:48:36.101Z,95548.00
2023-05-21T03:49:37.222Z,95548.00
2023-05-21T03:50:37.191Z,95546.00
2023-05-21T03:51:36.246Z,95546.00
2023-05-21T03:52:37.279Z,95545.00
2023-05-21T03:53:37.329Z,95545.00
2023-05-21T03:54:37.463Z,95546.00
2023-05-21T03:55:37.719Z,95543.00
2023-05-21T03:56:36.786Z,95541.00
2023-05-21T03:57:37.562Z,95541.00
2023-05-21T03:58:36.743Z,95543.00
2023-05-21T03:59:36.672Z,95537.00
2023-05-21T04:00:36.733Z,95539.00
2023-05-21T04:01:37.799Z,95541.00
2023-05-21T04:02:37.956Z,95541.00
2023-05-21T04:03:39.973Z,95537.00
2023-05-21T04:04:38.016Z,95537.00
2023-05-21T04:05:37.110Z,95537.00
2023-05-21T04:06:38.078Z,95539.00
2023-05-21T04:07:37.896Z,95541.00
2023-05-21T04:08:37.009Z,95541.00
2023-05-21T04:09:36.953Z,95541.00
2023-05-21T04:10:36.928Z,95543.00
2023-05-21T04:11:37.886Z,95546.00
2023-05-21T04:12:36.989Z,95552.00
2023-05-21T04:13:37.866Z,95552.00
2023-05-21T04:14:36.994Z,95552.00
2023-05-21T04:15:37.103Z,95556.00
2023-05-21T04:16:37.985Z,95554.00
2023-05-21T04:17:36.819Z,95556.00
2023-05-21T04:18:37.978Z,95554.00
2023-05-21T04:19:36.894Z,95556.00
2023-05-21T04:20:36.976Z,95554.00
2023-05-21T04:21:36.783Z,95554.00
2023-05-21T04:22:37.037Z,95552.00
2023-05-21T04:23:37.948Z,95550.00
2023-05-21T04:24:37.892Z,95548.00
2023-05-21T04:25:37.043Z,95548.00
2023-05-21T04:26:36.987Z,95548.00
2023-05-21T04:27:37.917Z,95550.00
2023-05-21T04:28:38.126Z,95556.00
2023-05-21T04:29:36.970Z,95558.00
2023-05-21T04:30:37.156Z,95562.00
2023-05-21T04:31:37.395Z,95564.00
2023-05-21T04:32:37.344Z,95564.00
2023-05-21T04:33:37.221Z,95562.00
2023-05-21T04:34:38.251Z,95564.00
2023-05-21T04:35:37.579Z,95560.00
2023-05-21T04:36:38.406Z,95564.00
2023-05-21T04:37:38.447Z,95564.00
2023-05-21T04:38:38.530Z,95566.00
2023-05-21T04:39:37.553Z,95564.00
2023-05-21T04:40:37.667Z,95566.00
2023-05-21T04:41:37.679Z,95562.00
2023-05-21T04:42:38.873Z,95560.00
2023-05-21T04:43:37.808Z,95560.00
2023-05-21T04:44:38.848Z,95562.00
2023-05-21T04:45:38.055Z,95558.00
2023-05-21T04:46:39.663Z,95558.00
2023-05-21T04:47:38.054Z,95558.00
2023-05-21T04:48:39.078Z,95560.00
2023-05-21T04:49:38.936Z,95560.00
2023-05-21T04:50:37.983Z,95564.00
2023-05-21T04:51:38.000Z,95564.00
2023-05-21T04:52:38.145Z,95566.00
2023-05-21T04:53:39.163Z,95568.00
2023-05-21T04:54:37.912Z,95568.00
2023-05-21T04:55:38.898Z,95570.00
2023-05-21T04:56:38.950Z,95566.00
2023-05-21T04:57:37.975Z,95568.00
2023-05-21T04:58:38.975Z,95570.00
2023-05-21T04:59:38.050Z,95578.00
2023-05-21T05:00:38.069Z,95578.00
2023-05-21T05:01:38.869Z,95570.00
2023-05-21T05:02:37.912Z,95574.00
2023-05-21T05:03:39.167Z,95572.00
2023-05-21T05:04:38.943Z,95568.00
2023-05-21T05:05:38.492Z,95568.00
2023-05-21T05:06:37.935Z,95570.00
2023-05-21T05:07:37.955Z,95572.00
2023-05-21T05:08:38.846Z,95568.00
2023-05-21T05:09:38.974Z,95568.00
2023-05-21T05:10:39.040Z,95566.00
2023-05-21T05:11:38.896Z,95566.00
2023-05-21T05:12:39.061Z,95566.00
2023-05-21T05:13:38.939Z,95564.00
2023-05-21T05:14:39.022Z,95562.00
2023-05-21T05:15:38.550Z,95560.00
2023-05-21T05:16:38.175Z,95558.00
2023-05-21T05:17:39.116Z,95558.00
2023-05-21T05:18:38.148Z,95562.00
2023-05-21T05:19:38.329Z,95564.00
2023-05-21T05:20:39.244Z,95562.00
2023-05-21T05:21:38.348Z,95560.00
2023-05-21T05:22:38.597Z,95562.00
2023-05-21T05:23:39.393Z,95560.00
2023-05-21T05:24:38.670Z,95560.00
2023-05-21T05:25:38.779Z,95560.00
2023-05-21T05:26:38.525Z,95558.00
2023-05-21T05:27:39.475Z,95560.00
2023-05-21T05:28:38.621Z,95560.00
2023-05-21T05:29:39.957Z,95556.00
2023-05-21T05:30:39.830Z,95558.00
2023-05-21T05:31:40.001Z,95554.00
2023-05-21T05:32:38.830Z,95552.00
2023-05-21T05:33:40.083Z,95550.00
2023-05-21T05:34:39.108Z,95550.00
2023-05-21T05:35:38.941Z,95548.00
2023-05-21T05:36:38.987Z,95546.00
2023-05-21T05:37:39.061Z,95546.00
2023-05-21T05:38:39.216Z,95546.00
2023-05-21T05:39:40.160Z,95545.00
2023-05-21T05:40:39.171Z,95546.00
2023-05-21T05:41:39.307Z,95546.00
2023-05-21T05:42:40.310Z,95545.00
2023-05-21T05:43:40.317Z,95545.00
2023-05-21T05:44:40.379Z,95545.00
2023-05-21T05:45:40.410Z,95543.00
2023-05-21T05:46:39.836Z,95541.00
2023-05-21T05:47:39.590Z,95543.00
2023-05-21T05:48:39.756Z,95541.00
2023-05-21T05:49:39.634Z,95541.00
2023-05-21T05:50:39.671Z,95541.00
2023-05-21T05:51:39.738Z,95546.00
2023-05-21T05:52:39.818Z,95546.00
2023-05-21T05:53:40.795Z,95546.00
2023-05-21T05:54:40.841Z,95541.00
2023-05-21T05:55:41.039Z,95541.00
2023-05-21T05:56:39.936Z,95537.00
2023-05-21T05:57:42.169Z,95535.00
2023-05-21T05:58:40.064Z,95533.00
2023-05-21T05:59:40.055Z,95533.00
2023-05-21T06:00:39.995Z,95533.00
2023-05-21T06:01:41.195Z,95535.00
2023-05-21T06:02:39.992Z,95533.00
2023-05-21T06:03:41.063Z,95531.00
2023-05-21T06:04:39.966Z,95531.00
2023-05-21T06:05:41.046Z,95527.00
2023-05-21T06:06:41.088Z,95525.00
2023-05-21T06:07:40.903Z,95529.00
2023-05-21T06:08:40.960Z,95525.00
2023-05-21T06:09:40.049Z,95525.00
2023-05-21T06:10:40.180Z,95523.00
2023-05-21T06:11:41.073Z,95521.00
2023-05-21T06:12:40.942Z,95525.00
2023-05-21T06:13:39.912Z,95527.00
2023-05-21T06:14:41.816Z,95527.00
2023-05-21T06:15:39.846Z,95525.00
2023-05-21T06:16:39.942Z,95525.00
2023-05-21T06:17:41.116Z,95523.00
2023-05-21T06:18:40.864Z,95521.00
2023-05-21T06:19:39.825Z,95517.00
2023-05-21T06:20:40.874Z,95517.00
2023-05-21T06:21:39.853Z,95519.00
2023-05-21T06:22:39.833Z,95519.00
2023-05-21T06:23:39.805Z,95519.00
2023-05-21T06:24:39.815Z,95519.00
2023-05-21T06:25:39.900Z,95517.00
2023-05-21T06:26:39.778Z,95515.00
2023-05-21T06:27:40.809Z,95519.00
2023-05-21T06:28:39.778Z,95517.00
2023-05-21T06:29:40.800Z,95517.00
2023-05-21T06:30:39.767Z,95517.00
2023-05-21T06:31:40.755Z,95517.00
2023-05-21T06:32:39.826Z,95521.00
2023-05-21T06:33:40.973Z,95517.00
2023-05-21T06:34:39.731Z,95523.00
2023-05-21T06:35:40.726Z,95525.00
2023-05-21T06:36:40.812Z,95525.00
2023-05-21T06:37:39.700Z,95523.00
2023-05-21T06:38:40.704Z,95523.00
2023-05-21T06:39:39.915Z,95521.00
2023-05-21T06:40:39.765Z,95523.00
2023-05-21T06:41:40.846Z,95523.00
2023-05-21T06:42:39.680Z,95525.00
2023-05-21T06:43:40.673Z,95523.00
2023-05-21T06:44:39.674Z,95521.00
2023-05-21T06:45:41.056Z,95521.00
2023-05-21T06:46:40.913Z,95521.00
2023-05-21T06:48:39.684Z,95519.00
2023-05-21T06:49:40.763Z,95519.00
2023-05-21T06:50:39.789Z,95519.00
2023-05-21T06:51:40.612Z,95517.00
2023-05-21T06:52:39.828Z,95515.00
2023-05-21T06:53:40.634Z,95513.00
2023-05-21T06:54:39.747Z,95515.00
2023-05-21T06:55:39.674Z,95513.00
2023-05-21T06:56:40.722Z,95513.00
2023-05-21T06:57:40.766Z,95515.00
2023-05-21T06:58:39.776Z,95511.00
2023-05-21T06:59:39.902Z,95513.00
2023-05-21T07:00:40.766Z,95509.00
2023-05-21T07:01:41.043Z,95511.00
2023-05-21T07:02:39.940Z,95511.00
2023-05-21T07:03:41.031Z,95515.00
2023-05-21T07:04:41.011Z,95513.00
2023-05-21T07:05:40.230Z,95515.00
2023-05-21T07:06:41.017Z,95517.00
2023-05-21T07:07:41.053Z,95515.00
2023-05-21T07:08:39.879Z,95517.00
2023-05-21T07:09:40.075Z,95513.00
2023-05-21T07:10:40.904Z,95513.00
2023-05-21T07:11:40.007Z,95515.00
2023-05-21T07:12:41.106Z,95511.00
2023-05-21T07:13:40.946Z,95509.00
2023-05-21T07:14:41.004Z,95509.00
2023-05-21T07:15:40.976Z,95509.00
2023-05-21T07:16:40.006Z,95507.00
2023-05-21T07:17:41.315Z,95509.00
2023-05-21T07:18:40.205Z,95507.00
2023-05-21T07:19:41.125Z,95509.00
2023-05-21T07:20:40.096Z,95507.00
2023-05-21T07:21:41.109Z,95507.00
2023-05-21T07:22:40.208Z,95503.00
2023-05-21T07:23:40.110Z,95503.00
2023-05-21T07:24:40.222Z,95501.00
2023-05-21T07:25:40.099Z,95503.00
2023-05-21T07:26:41.222Z,95501.00
2023-05-21T07:27:41.166Z,95499.00
2023-05-21T07:28:40.234Z,95501.00
2023-05-21T07:29:40.164Z,95498.00
2023-05-21T07:30:40.181Z,95499.00
2023-05-21T07:31:40.279Z,95499.00
2023-05-21T07:32:40.378Z,95498.00
2023-05-21T07:33:41.193Z,95501.00
2023-05-21T07:34:41.199Z,95501.00
2023-05-21T07:35:41.266Z,95501.00
2023-05-21T07:36:41.315Z,95501.00
2023-05-21T07:37:40.296Z,95503.00
2023-05-21T07:38:41.232Z,95501.00
2023-05-21T07:39:41.245Z,95499.00
2023-05-21T07:40:41.343Z,95503.00
2023-05-21T07:41:40.274Z,95503.00
2023-05-21T07:42:40.452Z,95503.00
2023-05-21T07:43:40.504Z,95501.00
2023-05-21T07:44:40.277Z,95498.00
2023-05-21T07:45:41.434Z,95496.00
2023-05-21T07:46:41.397Z,95499.00
2023-05-21T07:47:41.397Z,95498.00
2023-05-21T07:48:40.517Z,95496.00
2023-05-21T07:49:41.437Z,95494.00
2023-05-21T07:50:41.360Z,95494.00
2023-05-21T07:51:40.462Z,95498.00
2023-05-21T07:52:40.351Z,95494.00
2023-05-21T07:53:40.408Z,95494.00
2023-05-21T07:54:41.350Z,95490.00
2023-05-21T07:55:41.368Z,95490.00
2023-05-21T07:56:40.584Z,95492.00
2023-05-21T07:57:41.394Z,95490.00
2023-05-21T07:58:41.386Z,95490.00
2023-05-21T07:59:41.583Z,95490.00
2023-05-21T08:00:40.553Z,95488.00
2023-05-21T08:01:40.385Z,95490.00
2023-05-21T08:02:40.585Z,95490.00
2023-05-21T08:03:40.596Z,95490.00
2023-05-21T08:04:41.332Z,95490.00
2023-05-21T08:05:40.584Z,95486.00
2023-05-21T08:06:41.526Z,95490.00
2023-05-21T08:07:40.442Z,95488.00
2023-05-21T08:08:41.527Z,95488.00
2023-05-21T08:09:41.431Z,95486.00
2023-05-21T08:10:40.602Z,95484.00
2023-05-21T08:11:40.417Z,95486.00
2023-05-21T08:12:41.438Z,95484.00
2023-05-21T08:13:40.624Z,95484.00
2023-05-21T08:14:41.654Z,95482.00
2023-05-21T08:15:40.535Z,95482.00
2023-05-21T08:16:40.789Z,95482.00
2023-05-21T08:17:40.682Z,95480.00
2023-05-21T08:18:40.463Z,95478.00
2023-05-21T08:19:40.469Z,95474.00
2023-05-21T08:20:41.403Z,95472.00
2023-05-21T08:21:40.617Z,95474.00
2023-05-21T08:22:40.395Z,95472.00
2023-05-21T08:23:41.572Z,95472.00
2023-05-21T08:24:40.510Z,95472.00
2023-05-21T08:25:40.576Z,95474.00
2023-05-21T08:26:40.386Z,95470.00
2023-05-21T08:27:41.385Z,95468.00
2023-05-21T08:28:41.381Z,95468.00
2023-05-21T08:29:40.397Z,95468.00
2023-05-21T08:30:40.375Z,95468.00
2023-05-21T08:31:41.576Z,95466.00
2023-05-21T08:32:41.428Z,95468.00
2023-05-21T08:33:40.395Z,95468.00
2023-05-21T08:34:40.457Z,95466.00
2023-05-21T08:35:41.378Z,95466.00
2023-05-21T08:36:41.391Z,95464.00
2023-05-21T08:37:41.375Z,95466.00
2023-05-21T08:38:41.359Z,95464.00
2023-05-21T08:39:40.368Z,95460.00
2023-05-21T08:40:40.383Z,95458.00
2023-05-21T08:41:41.600Z,95458.00
2023-05-21T08:42:41.533Z,95456.00
2023-05-21T08:43:41.360Z,95454.00
2023-05-21T08:44:40.364Z,95458.00
2023-05-21T08:45:40.564Z,95456.00
2023-05-21T08:46:40.432Z,95456.00
2023-05-21T08:47:41.567Z,95458.00
2023-05-21T08:48:40.431Z,95458.00
2023-05-21T08:49:40.516Z,95456.00
2023-05-21T08:50:41.612Z,95458.00
2023-05-21T08:51:40.479Z,95458.00
2023-05-21T08:52:41.444Z,95460.00
2023-05-21T08:53:41.499Z,95462.00
2023-05-21T08:54:40.508Z,95462.00
2023-05-21T08:55:40.433Z,95460.00
2023-05-21T08:56:40.514Z,95460.00
2023-05-21T08:57:41.510Z,95458.00
2023-05-21T08:58:40.567Z,95460.00
2023-05-21T08:59:41.400Z,95460.00
2023-05-21T09:00:40.423Z,95456.00
2023-05-21T09:01:41.716Z,95456.00
2023-05-21T09:02:41.579Z,95454.00
2023-05-21T09:03:41.443Z,95454.00
2023-05-21T09:04:41.696Z,95454.00
2023-05-21T09:05:40.423Z,95452.00
2023-05-21T09:06:40.418Z,95456.00
2023-05-21T09:07:41.662Z,95454.00
2023-05-21T09:08:41.435Z,95454.00
2023-05-21T09:09:41.668Z,95454.00
2023-05-21T09:10:40.454Z,95454.00
2023-05-21T09:11:40.754Z,95452.00
2023-05-21T09:12:40.457Z,95452.00
2023-05-21T09:13:41.788Z,95452.00
2023-05-21T09:14:40.583Z,95452.00
2023-05-21T09:15:41.452Z,95452.00
2023-05-21T09:16:41.539Z,95452.00
2023-05-21T09:17:40.483Z,95452.00
2023-05-21T09:18:41.484Z,95456.00
2023-05-21T09:19:40.601Z,95454.00
2023-05-21T09:20:40.598Z,95456.00
2023-05-21T09:21:40.592Z,95456.00
2023-05-21T09:22:41.470Z,95456.00
2023-05-21T09:23:40.598Z,95458.00
2023-05-21T09:24:40.511Z,95460.00
2023-05-21T09:25:41.594Z,95458.00
2023-05-21T09:26:41.630Z,95458.00
2023-05-21T09:27:40.707Z,95458.00
2023-05-21T09:28:41.546Z,95460.00
2023-05-21T09:29:40.740Z,95458.00
2023-05-21T09:30:41.979Z,95460.00
2023-05-21T09:31:41.598Z,95460.00
2023-05-21T09:32:41.387Z,95462.00
2023-05-21T09:33:40.654Z,95460.00
2023-05-21T09:34:40.839Z,95460.00
2023-05-21T09:35:40.767Z,95460.00
2023-05-21T09:36:40.699Z,95456.00
2023-05-21T09:37:40.848Z,95456.00
2023-05-21T09:38:40.688Z,95456.00
2023-05-21T09:39:40.743Z,95452.00
2023-05-21T09:40:40.831Z,95452.00
2023-05-21T09:41:40.885Z,95454.00
2023-05-21T09:42:40.776Z,95451.00
2023-05-21T09:43:41.779Z,95452.00
2023-05-21T09:44:40.925Z,95451.00
2023-05-21T09:45:41.026Z,95449.00
2023-05-21T09:46:42.503Z,95449.00
2023-05-21T09:47:42.035Z,95451.00
2023-05-21T09:48:41.250Z,95449.00
2023-05-21T09:49:41.092Z,95449.00
2023-05-21T09:50:41.121Z,95449.00
2023-05-21T09:51:41.174Z,95447.00
2023-05-21T09:52:42.306Z,95447.00
2023-05-21T09:53:42.244Z,95449.00
2023-05-21T09:54:41.348Z,95447.00
2023-05-21T09:55:41.402Z,95445.00
2023-05-21T09:56:41.537Z,95445.00
2023-05-21T09:57:42.652Z,95443.00
2023-05-21T09:58:41.684Z,95443.00
2023-05-21T09:59:42.520Z,95447.00
2023-05-21T10:00:41.593Z,95449.00
2023-05-21T10:01:41.681Z,95445.00
2023-05-21T10:02:41.807Z,95445.00
2023-05-21T10:03:42.771Z,95445.00
2023-05-21T10:04:42.071Z,95445.00
2023-05-21T10:05:41.900Z,95443.00
2023-05-21T10:06:41.975Z,95445.00
2023-05-21T10:07:41.999Z,95445.00
2023-05-21T10:08:42.218Z,95443.00
2023-05-21T10:09:43.113Z,95443.00
2023-05-21T10:10:43.229Z,95441.00
2023-05-21T10:11:42.364Z,95443.00
2023-05-21T10:12:43.285Z,95441.00
2023-05-21T10:13:43.348Z,95439.00
2023-05-21T10:14:42.412Z,95437.00
2023-05-21T10:15:42.458Z,95439.00
2023-05-21T10:16:43.563Z,95435.00
2023-05-21T10:17:43.734Z,95435.00
2023-05-21T10:18:43.708Z,95433.00
2023-05-21T10:19:42.716Z,95431.00
2023-05-21T10:20:42.762Z,95431.00
2023-05-21T10:21:43.818Z,95431.00
2023-05-21T10:22:43.876Z,95429.00
2023-05-21T10:23:43.980Z,95429.00
2023-05-21T10:24:43.131Z,95429.00
2023-05-21T10:25:43.184Z,95421.00
2023-05-21T10:26:44.140Z,95421.00
2023-05-21T10:27:43.395Z,95421.00
2023-05-21T10:28:44.380Z,95417.00
2023-05-21T10:29:43.317Z,95419.00
2023-05-21T10:30:44.351Z,95417.00
2023-05-21T10:31:44.430Z,95413.00
2023-05-21T10:32:43.674Z,95415.00
2023-05-21T10:33:44.771Z,95415.00
2023-05-21T10:34:43.715Z,95413.00
2023-05-21T10:35:44.665Z,95411.00
2023-05-21T10:36:43.689Z,95411.00
2023-05-21T10:37:43.849Z,95411.00
2023-05-21T10:38:44.852Z,95407.00
2023-05-21T10:39:44.124Z,95406.00
2023-05-21T10:40:44.034Z,95404.00
2023-05-21T10:41:45.037Z,95402.00
2023-05-21T10:42:44.137Z,95400.00
2023-05-21T10:43:44.257Z,95400.00
2023-05-21T10:44:44.354Z,95400.00
2023-05-21T10:45:45.275Z,95402.00
2023-05-21T10:46:44.345Z,95396.00
2023-05-21T10:47:45.471Z,95400.00
2023-05-21T10:48:44.510Z,95396.00
2023-05-21T10:49:44.578Z,95400.00
2023-05-21T10:50:45.659Z,95396.00
2023-05-21T10:51:44.636Z,95396.00
2023-05-21T10:52:44.701Z,95394.00
2023-05-21T10:53:45.834Z,95394.00
2023-05-21T10:54:44.845Z,95392.00
2023-05-21T10:55:44.955Z,95394.00
2023-05-21T10:56:45.000Z,95392.00
2023-05-21T10:57:45.157Z,95388.00
2023-05-21T10:58:46.071Z,95388.00
2023-05-21T10:59:46.304Z,95384.00
2023-05-21T11:00:45.183Z,95384.00
2023-05-21T11:01:45.398Z,95382.00
2023-05-21T11:02:45.383Z,95380.00
2023-05-21T11:03:45.444Z,95382.00
2023-05-21T11:04:45.482Z,95376.00
2023-05-21T11:05:46.585Z,95378.00
2023-05-21T11:06:46.554Z,95378.00
2023-05-21T11:07:45.621Z,95376.00
2023-05-21T11:08:45.898Z,95376.00
2023-05-21T11:09:45.750Z,95376.00
2023-05-21T11:10:46.932Z,95376.00
2023-05-21T11:11:45.938Z,95376.00
2023-05-21T11:12:46.922Z,95378.00
2023-05-21T11:13:45.965Z,95376.00
2023-05-21T11:14:46.097Z,95372.00
2023-05-21T11:15:47.127Z,95372.00
2023-05-21T11:16:47.196Z,95374.00
2023-05-21T11:17:46.270Z,95372.00
2023-05-21T11:18:47.439Z,95372.00
2023-05-21T11:19:46.377Z,95370.00
2023-05-21T11:20:47.429Z,95368.00
2023-05-21T11:21:47.528Z,95368.00
2023-05-21T11:22:46.546Z,95370.00
2023-05-21T11:23:47.593Z,95366.00
2023-05-21T11:24:48.235Z,95364.00
2023-05-21T11:25:46.889Z,95366.00
2023-05-21T11:26:46.975Z,95364.00
2023-05-21T11:27:48.004Z,95362.00
2023-05-21T11:28:47.095Z,95362.00
2023-05-21T11:29:48.117Z,95364.00
2023-05-21T11:30:47.244Z,95364.00
2023-05-21T11:31:48.436Z,95364.00
2023-05-21T11:32:48.323Z,95362.00
2023-05-21T11:33:47.457Z,95364.00
2023-05-21T11:34:47.579Z,95364.00
2023-05-21T11:35:47.507Z,95364.00
2023-05-21T11:36:48.564Z,95362.00
2023-05-21T11:37:48.658Z,95360.00
2023-05-21T11:38:47.598Z,95360.00
2023-05-21T11:39:48.732Z,95360.00
2023-05-21T11:40:48.861Z,95360.00
2023-05-21T11:41:47.999Z,95360.00
2023-05-21T11:42:48.848Z,95359.00
2023-05-21T11:43:47.890Z,95359.00
2023-05-21T11:44:48.100Z,95357.00
2023-05-21T11:45:48.100Z,95357.00